Time;durP1;ratioP1;P1;durP2;ratioP2;P2;SDS_P1;SDS_P2;PMS_P1;PMS_P2;Temp;Humidity;BMP_temperature;BMP_pressure;BME280_temperature;BME280_humidity;BME280_pressure;Samples;Min_cycle;Max_cycle;Signal;HPM_P1;HPM_P2
2024/01/05 00:01:32;;;;;;;2.60;2.40;;;;;;;2.39;100.00;98052.20;109508;1252;59011;-78
2024/01/05 00:04:00;;;;;;;2.60;1.70;;;;;;;2.37;100.00;98049.84;109527;1252;59015;-78
2024/01/05 00:06:27;;;;;;;3.10;1.70;;;;;;;2.35;100.00;98049.25;109191;1258;67359;-78
2024/01/05 00:08:53;;;;;;;2.50;2.00;;;;;;;2.34;100.00;98053.02;109250;1253;61062;-79
2024/01/05 00:11:20;;;;;;;4.20;2.30;;;;;;;2.32;100.00;98059.96;109509;1251;63950;-78
2024/01/05 00:13:47;;;;;;;2.20;2.00;;;;;;;2.30;100.00;98059.88;109448;1251;58971;-78
2024/01/05 00:16:18;;;;;;;2.60;2.30;;;;;;;2.28;100.00;98064.84;109508;1251;58899;-78
2024/01/05 00:18:45;;;;;;;3.50;2.10;;;;;;;2.27;100.00;98068.75;109438;1252;66191;-78
2024/01/05 00:21:26;;;;;;;2.40;1.90;;;;;;;2.26;100.00;98064.24;109498;1251;60990;-78
2024/01/05 00:23:54;;;;;;;2.90;2.10;;;;;;;2.25;100.00;98071.13;109499;1251;65167;-79
2024/01/05 00:26:21;;;;;;;2.70;2.10;;;;;;;2.23;100.00;98071.58;109444;1252;58948;-78
2024/01/05 00:28:50;;;;;;;2.60;2.10;;;;;;;2.22;100.00;98073.21;109509;1253;58848;-78
2024/01/05 00:31:17;;;;;;;3.70;2.40;;;;;;;2.20;100.00;98079.60;109231;1253;68159;-79
2024/01/05 00:33:44;;;;;;;3.20;1.90;;;;;;;2.19;100.00;98074.73;109497;1255;61119;-78
2024/01/05 00:36:11;;;;;;;2.20;2.00;;;;;;;2.18;100.00;98060.94;109443;1251;65361;-78
2024/01/05 00:38:41;;;;;;;1.80;1.50;;;;;;;2.16;100.00;98074.18;109491;1252;59006;-78
2024/01/05 00:41:07;;;;;;;2.30;1.70;;;;;;;2.15;100.00;98079.33;109303;1252;59016;-78
2024/01/05 00:43:34;;;;;;;2.10;1.80;;;;;;;2.14;100.00;98080.95;109565;1252;65001;-78
2024/01/05 00:46:00;;;;;;;1.90;1.70;;;;;;;2.12;100.00;98079.80;109375;1253;61024;-79
2024/01/05 00:48:27;;;;;;;3.20;2.50;;;;;;;2.11;100.00;98087.40;109497;1252;63982;-79
2024/01/05 00:50:54;;;;;;;3.40;2.40;;;;;;;2.11;100.00;98093.71;109496;1251;58965;-78
2024/01/05 00:53:20;;;;;;;3.40;2.80;;;;;;;2.11;100.00;98093.52;109529;1251;59014;-78
2024/01/05 00:55:47;;;;;;;3.40;2.40;;;;;;;2.10;100.00;98094.27;109472;1251;67076;-78
2024/01/05 00:58:13;;;;;;;3.20;2.90;;;;;;;2.08;100.00;98087.89;109448;1252;60269;-79
2024/01/05 01:00:40;;;;;;;2.30;2.00;;;;;;;2.07;100.00;98085.33;109470;1252;64090;-78
2024/01/05 01:03:06;;;;;;;2.70;2.50;;;;;;;2.05;100.00;98085.23;109501;1252;59094;-78
2024/01/05 01:05:33;;;;;;;3.10;2.50;;;;;;;2.04;100.00;98090.02;109503;1251;59188;-78
2024/01/05 01:08:00;;;;;;;2.70;2.20;;;;;;;2.04;100.00;98088.63;109504;1252;65885;-77
2024/01/05 01:10:27;;;;;;;3.50;2.40;;;;;;;2.02;100.00;98087.99;109586;1251;59833;-78
2024/01/05 01:12:53;;;;;;;2.50;2.30;;;;;;;2.00;100.00;98092.11;109562;1251;63967;-78
2024/01/05 01:15:20;;;;;;;3.10;2.40;;;;;;;1.99;100.00;98096.89;109619;1252;59275;-78
2024/01/05 01:17:46;;;;;;;3.30;2.60;;;;;;;1.97;100.00;98089.46;109630;1251;58934;-79
2024/01/05 01:20:13;;;;;;;2.50;2.00;;;;;;;1.95;100.00;98085.89;109570;1251;67060;-79
2024/01/05 01:22:40;;;;;;;2.90;2.40;;;;;;;1.93;100.00;98085.61;109505;1252;61532;-78
2024/01/05 01:25:06;;;;;;;3.60;2.40;;;;;;;1.91;100.00;98083.76;109519;1251;64997;-78
2024/01/05 01:27:34;;;;;;;2.50;2.30;;;;;;;1.90;100.00;98086.80;109497;1251;59287;-78
2024/01/05 01:30:00;;;;;;;2.80;2.30;;;;;;;1.88;100.00;98090.91;109372;1252;59295;-79
2024/01/05 01:32:28;;;;;;;3.10;2.10;;;;;;;1.87;100.00;98089.77;109557;1251;65967;-78
2024/01/05 01:34:54;;;;;;;2.40;1.80;;;;;;;1.85;100.00;98088.95;109555;1252;61045;-78
2024/01/05 01:37:21;;;;;;;2.00;1.80;;;;;;;1.83;100.00;98093.77;109267;1251;64623;-79
2024/01/05 01:39:48;;;;;;;3.00;1.70;;;;;;;1.83;100.00;98106.40;109480;1253;58970;-78
2024/01/05 01:42:14;;;;;;;2.60;2.00;;;;;;;1.81;100.00;98110.33;109539;1252;59047;-78
2024/01/05 01:44:41;;;;;;;3.50;1.70;;;;;;;1.80;100.00;98111.79;109520;1251;67273;-78
2024/01/05 01:47:07;;;;;;;2.30;1.70;;;;;;;1.79;100.00;98115.34;109502;1252;60493;-78
2024/01/05 01:49:34;;;;;;;2.30;1.80;;;;;;;1.79;100.00;98120.07;109497;1251;65233;-78
2024/01/05 01:52:01;;;;;;;3.90;1.90;;;;;;;1.79;100.00;98118.84;108757;1252;1002195;-78
2024/01/05 01:54:32;;;;;;;2.60;1.90;;;;;;;1.79;100.00;98128.13;109532;1252;59078;-79
2024/01/05 01:56:59;;;;;;;2.90;2.00;;;;;;;1.79;100.00;98131.82;109433;1251;64727;-78
2024/01/05 01:59:26;;;;;;;3.20;2.30;;;;;;;1.79;100.00;98132.70;109531;1251;60218;-78
2024/01/05 02:01:53;;;;;;;2.70;2.40;;;;;;;1.78;100.00;98128.36;109388;1251;65176;-78
2024/01/05 02:04:22;;;;;;;2.80;2.60;;;;;;;1.78;100.00;98129.75;109484;1251;59015;-79
2024/01/05 02:06:49;;;;;;;2.60;2.40;;;;;;;1.78;100.00;98127.84;109459;1251;59091;-78
2024/01/05 02:09:15;;;;;;;2.90;2.60;;;;;;;1.77;100.00;98126.99;109553;1251;67521;-79
2024/01/05 02:11:42;;;;;;;2.60;2.30;;;;;;;1.77;100.00;98133.83;109540;1253;60041;-78
2024/01/05 02:14:08;;;;;;;3.80;2.50;;;;;;;1.77;100.00;98144.34;109451;1251;64005;-79
2024/01/05 02:16:35;;;;;;;3.60;2.80;;;;;;;1.76;100.00;98143.13;109458;1251;59160;-79
2024/01/05 02:19:02;;;;;;;3.10;2.50;;;;;;;1.76;100.00;98140.85;109547;1253;59104;-79
2024/01/05 02:21:38;;;;;;;4.00;2.90;;;;;;;1.75;100.00;98139.32;109523;1251;65922;-78
2024/01/05 02:24:05;;;;;;;3.40;3.10;;;;;;;1.75;100.00;98141.98;109568;1251;60073;-79
2024/01/05 02:26:32;;;;;;;3.20;2.90;;;;;;;1.75;100.00;98143.54;109525;1251;64067;-78
2024/01/05 02:29:02;;;;;;;2.90;2.50;;;;;;;1.75;100.00;98143.52;109569;1251;58993;-79
2024/01/05 02:31:28;;;;;;;3.00;2.70;;;;;;;1.78;100.00;98146.75;109542;1251;58955;-78
2024/01/05 02:33:55;;;;;;;3.50;3.10;;;;;;;1.77;100.00;98152.39;109538;1251;67053;-77
2024/01/05 02:36:21;;;;;;;3.30;2.70;;;;;;;1.78;100.00;98145.70;109539;1251;60029;-79
2024/01/05 02:38:48;;;;;;;3.70;2.90;;;;;;;1.78;100.00;98144.45;109544;1251;64056;-78
2024/01/05 02:41:15;;;;;;;4.40;3.20;;;;;;;1.77;100.00;98147.64;109489;1253;58893;-77
2024/01/05 02:43:42;;;;;;;5.00;3.90;;;;;;;1.76;100.00;98150.31;109335;1251;59379;-79
2024/01/05 02:46:09;;;;;;;5.20;4.70;;;;;;;1.76;100.00;98149.98;109550;1251;66007;-78
2024/01/05 02:48:35;;;;;;;4.20;3.40;;;;;;;1.78;100.00;98152.71;109539;1251;60203;-78
2024/01/05 02:51:02;;;;;;;4.40;3.30;;;;;;;1.78;100.00;98157.42;109493;1251;65176;-78
2024/01/05 02:53:29;;;;;;;5.20;3.20;;;;;;;1.78;100.00;98157.77;109516;1253;59036;-78
2024/01/05 02:55:55;;;;;;;4.50;3.50;;;;;;;1.77;100.00;98159.89;109602;1251;59063;-79
2024/01/05 02:58:22;;;;;;;6.80;4.00;;;;;;;1.75;100.00;98162.44;109520;1253;65869;-79
2024/01/05 03:00:49;;;;;;;4.60;3.30;;;;;;;1.75;100.00;98163.52;109521;1251;60311;-78
2024/01/05 03:03:15;;;;;;;4.70;3.20;;;;;;;1.74;100.00;98163.70;109543;1251;65296;-78
2024/01/05 03:05:42;;;;;;;4.20;3.50;;;;;;;1.75;100.00;98168.77;109489;1253;59109;-78
2024/01/05 03:08:08;;;;;;;4.40;4.00;;;;;;;1.74;100.00;98171.06;109571;1251;58875;-79
2024/01/05 03:10:35;;;;;;;3.90;3.50;;;;;;;1.72;100.00;98170.79;109361;1251;66647;-78
2024/01/05 03:13:02;;;;;;;6.80;4.70;;;;;;;1.71;100.00;98174.18;109546;1253;68574;-78
2024/01/05 03:15:29;;;;;;;4.70;3.90;;;;;;;1.69;100.00;98175.66;109511;1251;65164;-79
2024/01/05 03:17:55;;;;;;;4.90;4.40;;;;;;;1.69;100.00;98178.13;109485;1251;59018;-78
2024/01/05 03:20:22;;;;;;;8.80;5.30;;;;;;;1.68;100.00;98172.91;109575;1251;59263;-77
2024/01/05 03:22:48;;;;;;;6.30;5.20;;;;;;;1.66;100.00;98172.83;109474;1251;67336;-79
2024/01/05 03:25:15;;;;;;;7.40;5.80;;;;;;;1.65;100.00;98174.61;109530;1251;59397;-79
2024/01/05 03:27:42;;;;;;;5.90;5.30;;;;;;;1.65;100.00;98177.39;109486;1251;64196;-78
2024/01/05 03:30:08;;;;;;;5.60;5.00;;;;;;;1.66;100.00;98174.40;109507;1251;59010;-78
2024/01/05 03:32:35;;;;;;;6.60;5.00;;;;;;;1.65;100.00;98178.45;109528;1251;60047;-78
2024/01/05 03:35:02;;;;;;;5.30;4.80;;;;;;;1.66;100.00;98179.48;109523;1251;65953;-78
2024/01/05 03:37:28;;;;;;;6.30;5.40;;;;;;;1.67;100.00;98179.80;109545;1251;61371;-78
2024/01/05 03:39:55;;;;;;;5.60;4.70;;;;;;;1.68;100.00;98178.15;109607;1251;65263;-79
2024/01/05 03:42:21;;;;;;;4.90;4.50;;;;;;;1.68;100.00;98177.12;109525;1251;58913;-78
2024/01/05 03:44:48;;;;;;;5.80;4.70;;;;;;;1.68;100.00;98181.84;109619;1251;59110;-79
2024/01/05 03:47:15;;;;;;;5.90;5.30;;;;;;;1.66;100.00;98184.36;109274;1251;64562;-78
2024/01/05 03:49:42;;;;;;;6.90;5.40;;;;;;;1.66;100.00;98183.52;109524;1251;60047;-77
2024/01/05 03:52:09;;;;;;;6.80;5.90;;;;;;;1.64;100.00;98187.98;109502;1251;72983;-78
2024/01/05 03:54:36;;;;;;;6.70;6.10;;;;;;;1.59;100.00;98182.56;109532;1251;59293;-78
2024/01/05 03:57:02;;;;;;;8.10;7.30;;;;;;;1.54;100.00;98180.55;109562;1251;58959;-78
2024/01/05 03:59:29;;;;;;;8.60;7.70;;;;;;;1.47;100.00;98175.91;109517;1251;67183;-77
2024/01/05 04:01:56;;;;;;;7.80;7.10;;;;;;;1.44;100.00;98170.63;109528;1251;61089;-78
2024/01/05 04:04:22;;;;;;;8.80;7.90;;;;;;;1.42;100.00;98174.59;109521;1251;64100;-77
2024/01/05 04:06:51;;;;;;;7.60;6.90;;;;;;;1.39;100.00;98172.77;109513;1251;58913;-78
2024/01/05 04:09:17;;;;;;;7.60;6.90;;;;;;;1.37;100.00;98173.93;109512;1251;59059;-79
2024/01/05 04:11:44;;;;;;;10.60;7.30;;;;;;;1.34;100.00;98174.57;109497;1251;75906;-79
2024/01/05 04:14:10;;;;;;;8.80;7.50;;;;;;;1.31;100.00;98171.01;109565;1251;61025;-78
2024/01/05 04:16:37;;;;;;;9.50;7.60;;;;;;;1.30;100.00;98170.02;109522;1251;65135;-79
2024/01/05 04:19:03;;;;;;;7.80;6.70;;;;;;;1.29;100.00;98169.67;109472;1251;58955;-77
2024/01/05 04:21:30;;;;;;;7.90;7.10;;;;;;;1.28;100.00;98168.36;109544;1251;59114;-79
2024/01/05 04:23:57;;;;;;;8.10;7.30;;;;;;;1.27;100.00;98168.56;109551;1251;67130;-79
2024/01/05 04:26:24;;;;;;;7.70;7.00;;;;;;;1.28;100.00;98166.75;109498;1254;60121;-79
2024/01/05 04:28:51;;;;;;;8.10;7.30;;;;;;;1.30;100.00;98162.14;109511;1251;63919;-79
2024/01/05 04:31:17;;;;;;;7.80;6.80;;;;;;;1.32;100.00;98163.46;109499;1251;59233;-78
2024/01/05 04:33:44;;;;;;;7.20;6.50;;;;;;;1.33;100.00;98169.56;109519;1251;59021;-78
2024/01/05 04:36:15;;;;;;;8.50;7.10;;;;;;;1.34;100.00;98174.55;109520;1255;67037;-78
2024/01/05 04:38:42;;;;;;;8.90;7.90;;;;;;;1.34;100.00;98172.98;109332;1255;61683;-78
2024/01/05 04:41:11;;;;;;;10.60;7.90;;;;;;;1.34;100.00;98170.54;109128;1257;65152;-78
2024/01/05 04:43:38;;;;;;;11.30;7.80;;;;;;;1.37;100.00;98173.23;109286;1255;59229;-79
2024/01/05 04:46:06;;;;;;;10.50;7.40;;;;;;;1.38;100.00;98175.98;109282;1255;58834;-78
2024/01/05 04:48:33;;;;;;;10.00;8.00;;;;;;;1.39;100.00;98181.52;109306;1254;65666;-78
2024/01/05 04:51:00;;;;;;;9.70;7.80;;;;;;;1.42;100.00;98185.42;107496;1254;1002286;-77
2024/01/05 04:53:27;;;;;;;9.20;7.70;;;;;;;1.44;100.00;98189.88;109284;1254;65534;-78
2024/01/05 04:55:54;;;;;;;9.80;8.20;;;;;;;1.46;100.00;98192.08;109177;1254;59227;-77
2024/01/05 04:58:21;;;;;;;8.20;7.40;;;;;;;1.46;100.00;98197.48;109266;1254;59152;-78
2024/01/05 05:00:48;;;;;;;9.00;8.10;;;;;;;1.47;100.00;98200.09;109294;1254;67191;-77
2024/01/05 05:03:15;;;;;;;9.60;8.30;;;;;;;1.45;100.00;98206.13;109035;1254;61140;-78
2024/01/05 05:05:41;;;;;;;8.80;7.60;;;;;;;1.41;100.00;98207.35;109318;1254;63624;-78
2024/01/05 05:08:13;;;;;;;7.90;7.10;;;;;;;1.37;100.00;98212.05;109316;1254;59146;-79
2024/01/05 05:10:40;;;;;;;9.10;7.70;;;;;;;1.34;100.00;98207.28;109545;1251;59049;-78
2024/01/05 05:13:06;;;;;;;9.40;8.50;;;;;;;1.33;100.00;98210.14;109687;1251;66059;-78
2024/01/05 05:15:33;;;;;;;8.80;7.90;;;;;;;1.31;100.00;98213.18;109680;1251;61247;-78
2024/01/05 05:17:59;;;;;;;12.40;9.20;;;;;;;1.29;100.00;98212.73;109529;1253;64767;-79
2024/01/05 05:20:26;;;;;;;12.00;9.90;;;;;;;1.27;100.00;98212.82;109553;1251;59240;-79
2024/01/05 05:22:52;;;;;;;12.40;9.40;;;;;;;1.26;100.00;98216.72;109528;1251;59080;-79
2024/01/05 05:25:19;;;;;;;10.40;8.60;;;;;;;1.24;100.00;98222.40;109495;1254;66096;-79
2024/01/05 05:27:45;;;;;;;9.00;8.10;;;;;;;1.21;100.00;98222.71;109530;1251;60115;-79
2024/01/05 05:30:12;;;;;;;10.00;9.00;;;;;;;1.20;100.00;98227.49;109490;1251;65289;-79
2024/01/05 05:32:39;;;;;;;9.40;7.50;;;;;;;1.20;100.00;98233.77;109479;1255;59023;-78
2024/01/05 05:35:06;;;;;;;10.80;8.00;;;;;;;1.19;100.00;98230.85;109345;1251;59035;-79
2024/01/05 05:37:32;;;;;;;10.00;7.90;;;;;;;1.20;100.00;98232.88;109556;1251;65944;-79
2024/01/05 05:39:59;;;;;;;9.40;8.00;;;;;;;1.20;100.00;98235.86;109466;1251;60058;-78
2024/01/05 05:42:26;;;;;;;10.80;8.90;;;;;;;1.21;100.00;98245.09;109509;1251;64135;-78
2024/01/05 05:44:53;;;;;;;15.20;10.40;;;;;;;1.22;100.00;98250.15;109489;1251;59265;-79
2024/01/05 05:47:20;;;;;;;9.50;8.50;;;;;;;1.21;100.00;98247.71;109522;1251;59113;-79
2024/01/05 05:49:46;;;;;;;10.50;9.30;;;;;;;1.20;100.00;98242.33;109333;1257;64767;-79
2024/01/05 05:52:13;;;;;;;10.00;9.00;;;;;;;1.19;100.00;98240.63;109531;1254;60332;-79
2024/01/05 05:54:39;;;;;;;11.20;8.50;;;;;;;1.19;100.00;98244.33;109499;1251;65648;-79
2024/01/05 05:57:07;;;;;;;10.10;9.10;;;;;;;1.20;100.00;98245.32;109476;1251;59025;-78
2024/01/05 05:59:34;;;;;;;9.60;8.60;;;;;;;1.21;100.00;98242.84;109548;1251;59115;-79
2024/01/05 06:02:01;;;;;;;10.50;9.10;;;;;;;1.21;100.00;98246.15;109484;1251;65650;-80
2024/01/05 06:04:27;;;;;;;11.10;10.00;;;;;;;1.22;100.00;98247.31;109556;1251;61088;-79
2024/01/05 06:06:54;;;;;;;12.40;10.70;;;;;;;1.24;100.00;98242.87;109517;1251;62766;-79
2024/01/05 06:09:21;;;;;;;12.60;11.30;;;;;;;1.24;100.00;98233.98;109485;1251;59373;-78
2024/01/05 06:11:47;;;;;;;11.30;10.20;;;;;;;1.24;100.00;98232.02;109511;1251;59095;-78
2024/01/05 06:14:14;;;;;;;11.60;9.30;;;;;;;1.26;100.00;98235.46;109474;1251;67057;-78
2024/01/05 06:16:41;;;;;;;10.80;8.60;;;;;;;1.27;100.00;98230.12;109254;1259;69386;-78
2024/01/05 06:19:09;;;;;;;9.50;8.40;;;;;;;1.29;100.00;98234.23;109510;1256;63982;-79
2024/01/05 06:21:35;;;;;;;11.10;9.60;;;;;;;1.31;100.00;98231.92;109526;1251;58953;-77
2024/01/05 06:24:02;;;;;;;12.40;11.10;;;;;;;1.31;100.00;98232.42;109715;1251;59012;-77
2024/01/05 06:26:30;;;;;;;10.20;9.20;;;;;;;1.33;100.00;98234.29;109657;1251;66366;-78
2024/01/05 06:28:57;;;;;;;10.70;9.10;;;;;;;1.34;100.00;98233.01;109607;1251;59908;-78
2024/01/05 06:31:24;;;;;;;9.80;8.50;;;;;;;1.35;100.00;98234.21;109644;1251;65027;-79
2024/01/05 06:33:51;;;;;;;10.50;9.40;;;;;;;1.35;100.00;98229.67;109567;1251;58992;-79
2024/01/05 06:36:17;;;;;;;10.40;9.20;;;;;;;1.36;100.00;98228.02;109621;1251;59131;-78
2024/01/05 06:38:44;;;;;;;9.70;8.70;;;;;;;1.38;100.00;98224.79;109497;1251;65784;-78
2024/01/05 06:41:10;;;;;;;11.80;10.70;;;;;;;1.40;100.00;98217.86;109485;1251;60335;-78
2024/01/05 06:43:37;;;;;;;11.00;9.30;;;;;;;1.42;100.00;98222.70;109492;1251;64750;-78
2024/01/05 06:46:04;;;;;;;11.30;9.00;;;;;;;1.44;100.00;98226.63;109457;1251;58947;-78
2024/01/05 06:48:31;;;;;;;10.10;9.00;;;;;;;1.45;100.00;98228.35;109329;1251;59134;-79
2024/01/05 06:50:58;;;;;;;11.60;10.40;;;;;;;1.46;100.00;98226.86;109537;1251;65589;-78
2024/01/05 06:53:25;;;;;;;10.60;9.60;;;;;;;1.49;100.00;98227.11;109507;1251;61178;-79
2024/01/05 06:55:51;;;;;;;11.40;10.20;;;;;;;1.51;100.00;98222.85;109492;1251;63986;-79
2024/01/05 06:58:18;;;;;;;9.30;8.40;;;;;;;1.52;100.00;98225.06;109486;1251;59381;-79
2024/01/05 07:00:44;;;;;;;11.50;10.50;;;;;;;1.54;100.00;98221.99;109502;1251;59179;-78
2024/01/05 07:03:11;;;;;;;11.30;10.10;;;;;;;1.55;100.00;98222.30;109509;1251;67032;-78
2024/01/05 07:05:38;;;;;;;10.10;8.40;;;;;;;1.56;100.00;98224.73;109346;1251;60084;-79
2024/01/05 07:08:07;;;;;;;11.10;10.00;;;;;;;1.55;100.00;98228.08;109493;1251;65127;-79
2024/01/05 07:10:34;;;;;;;11.90;10.70;;;;;;;1.55;100.00;98223.73;109506;1251;59002;-78
2024/01/05 07:13:00;;;;;;;9.90;8.90;;;;;;;1.58;100.00;98222.57;109540;1251;58824;-79
2024/01/05 07:15:29;;;;;;;13.60;12.30;;;;;;;1.62;100.00;98225.19;109502;1251;66725;-78
2024/01/05 07:17:55;;;;;;;13.80;11.90;;;;;;;1.65;100.00;98219.94;109484;1251;60125;-78
2024/01/05 07:20:22;;;;;;;14.90;12.70;;;;;;;1.67;100.00;98221.44;109503;1251;65086;-77
2024/01/05 07:22:48;;;;;;;14.50;12.70;;;;;;;1.68;100.00;98218.61;109443;1251;59018;-78
2024/01/05 07:25:15;;;;;;;13.60;12.00;;;;;;;1.67;100.00;98219.35;109505;1251;59018;-78
2024/01/05 07:27:41;;;;;;;15.50;13.40;;;;;;;1.68;100.00;98220.16;109332;1251;67160;-78
2024/01/05 07:30:08;;;;;;;15.80;14.10;;;;;;;1.70;100.00;98216.58;109528;1251;61030;-78
2024/01/05 07:32:37;;;;;;;14.90;13.40;;;;;;;1.74;100.00;98207.65;109506;1251;64787;-78
2024/01/05 07:35:04;;;;;;;19.30;16.10;;;;;;;1.79;100.00;98204.30;109502;1251;59043;-78
2024/01/05 07:37:31;;;;;;;19.20;17.00;;;;;;;1.82;100.00;98201.89;109517;1251;59007;-78
2024/01/05 07:39:57;;;;;;;15.30;13.70;;;;;;;1.84;100.00;98202.87;109521;1251;67020;-78
2024/01/05 07:42:26;;;;;;;14.50;13.10;;;;;;;1.86;100.00;98205.55;109500;1251;60813;-78
2024/01/05 07:44:54;;;;;;;13.10;11.80;;;;;;;1.87;100.00;98207.27;109492;1251;64766;-78
2024/01/05 07:47:21;;;;;;;13.30;11.90;;;;;;;1.87;100.00;98212.54;109416;1251;59025;-78
2024/01/05 07:49:48;;;;;;;14.40;12.10;;;;;;;1.86;100.00;98212.55;109542;1251;58988;-77
2024/01/05 07:52:14;;;;;;;15.90;13.70;;;;;;;1.85;100.00;98209.61;109520;1251;67225;-77
2024/01/05 07:54:41;;;;;;;15.00;13.20;;;;;;;1.89;100.00;98206.64;109502;1251;61047;-78
2024/01/05 07:57:08;;;;;;;15.80;14.10;;;;;;;1.93;100.00;98200.34;109427;1251;64043;-78
2024/01/05 07:59:34;;;;;;;16.80;14.50;;;;;;;1.95;100.00;98198.67;109507;1251;59071;-78
2024/01/05 08:02:01;;;;;;;17.50;14.60;;;;;;;1.99;100.00;98191.69;109492;1251;59059;-78
2024/01/05 08:04:28;;;;;;;14.50;12.90;;;;;;;2.03;100.00;98189.75;109501;1251;76471;-78
2024/01/05 08:06:55;;;;;;;15.50;13.30;;;;;;;2.03;100.00;98195.34;109512;1251;60123;-78
2024/01/05 08:09:21;;;;;;;18.60;15.10;;;;;;;2.05;100.00;98194.38;109478;1251;65008;-78
2024/01/05 08:11:48;;;;;;;25.20;20.40;;;;;;;2.10;100.00;98191.85;107946;1251;1003089;-77
2024/01/05 08:14:15;;;;;;;29.40;23.20;;;;;;;2.19;100.00;98192.70;109540;1251;59013;-78
2024/01/05 08:16:41;;;;;;;26.20;22.90;;;;;;;2.28;100.00;98196.47;109571;1251;67128;-79
2024/01/05 08:19:08;;;;;;;24.20;19.70;;;;;;;2.34;100.00;98200.05;109506;1251;59964;-79
2024/01/05 08:21:35;;;;;;;26.70;22.90;;;;;;;2.37;100.00;98202.52;109482;1251;64092;-78
2024/01/05 08:24:02;;;;;;;16.60;14.10;;;;;;;2.39;100.00;98204.20;109521;1251;59070;-78
2024/01/05 08:26:28;;;;;;;15.40;13.30;;;;;;;2.36;100.00;98208.70;109518;1251;59121;-78
2024/01/05 08:28:55;;;;;;;14.90;13.50;;;;;;;2.34;100.00;98207.94;109514;1251;67093;-78
2024/01/05 08:31:21;;;;;;;13.70;12.30;;;;;;;2.34;100.00;98210.77;109477;1251;60978;-78
2024/01/05 08:33:48;;;;;;;12.80;11.20;;;;;;;2.31;100.00;98211.95;109536;1251;65072;-78
2024/01/05 08:36:15;;;;;;;15.20;13.60;;;;;;;2.28;100.00;98210.16;109470;1251;59432;-78
2024/01/05 08:38:44;;;;;;;20.20;16.70;;;;;;;2.30;100.00;98206.38;109475;1251;58987;-79
2024/01/05 08:41:11;;;;;;;15.40;13.80;;;;;;;2.33;100.00;98204.46;109494;1251;67037;-78
2024/01/05 08:43:40;;;;;;;18.20;15.20;;;;;;;2.35;100.00;98200.16;109490;1251;61394;-78
2024/01/05 08:46:07;;;;;;;18.20;14.20;;;;;;;2.39;100.00;98201.06;109477;1251;65019;-78
2024/01/05 08:48:34;;;;;;;16.00;12.80;;;;;;;2.34;100.00;98196.89;109377;1251;59029;-79
2024/01/05 08:51:00;;;;;;;15.10;13.20;;;;;;;2.26;100.00;98197.30;109497;1251;58850;-78
2024/01/05 08:53:27;;;;;;;18.90;15.00;;;;;;;2.18;100.00;98193.92;109518;1251;67081;-77
2024/01/05 08:55:53;;;;;;;15.40;13.80;;;;;;;2.14;100.00;98192.20;109525;1251;60207;-77
2024/01/05 08:58:20;;;;;;;14.60;13.10;;;;;;;2.11;100.00;98193.92;109298;1254;63524;-77
2024/01/05 09:00:47;;;;;;;16.00;14.30;;;;;;;2.07;100.00;98197.95;109395;1252;58990;-78
2024/01/05 09:03:13;;;;;;;18.70;15.70;;;;;;;2.05;100.00;98196.11;109396;1253;59034;-78
2024/01/05 09:05:41;;;;;;;19.40;16.00;;;;;;;2.07;100.00;98198.86;109407;1253;64728;-78
2024/01/05 09:08:07;;;;;;;19.40;17.30;;;;;;;2.10;100.00;98201.69;109391;1252;61422;-78
2024/01/05 09:10:34;;;;;;;19.60;16.60;;;;;;;2.14;100.00;98202.88;109385;1253;62975;-79
2024/01/05 09:13:00;;;;;;;19.30;16.20;;;;;;;2.16;100.00;98200.70;109389;1253;60877;-78
2024/01/05 09:15:27;;;;;;;18.30;15.60;;;;;;;2.21;100.00;98201.52;109451;1252;59078;-77
2024/01/05 09:17:54;;;;;;;17.20;15.30;;;;;;;2.29;100.00;98199.05;109336;1252;67000;-78
2024/01/05 09:20:21;;;;;;;18.00;14.70;;;;;;;2.32;100.00;98198.06;109380;1252;61108;-78
2024/01/05 09:22:47;;;;;;;17.20;13.80;;;;;;;2.34;100.00;98204.80;109410;1252;65189;-79
2024/01/05 09:25:14;;;;;;;16.20;14.10;;;;;;;2.33;100.00;98206.41;109414;1252;59078;-78
2024/01/05 09:27:40;;;;;;;16.90;15.20;;;;;;;2.30;100.00;98211.48;109386;1252;59035;-78
2024/01/05 09:30:07;;;;;;;17.30;15.40;;;;;;;2.30;100.00;98216.02;109479;1253;67021;-78
2024/01/05 09:32:34;;;;;;;16.90;14.90;;;;;;;2.29;100.00;98215.19;109409;1253;60012;-79
2024/01/05 09:35:01;;;;;;;17.70;15.70;;;;;;;2.31;100.00;98213.52;109395;1252;65020;-78
2024/01/05 09:37:27;;;;;;;17.00;14.70;;;;;;;2.37;100.00;98217.42;109394;1252;59284;-78
2024/01/05 09:39:54;;;;;;;15.00;13.50;;;;;;;2.44;100.00;98217.66;109426;1252;59048;-78
2024/01/05 09:42:22;;;;;;;16.70;14.20;;;;;;;2.49;100.00;98212.50;107873;1253;1002898;-77
2024/01/05 09:44:51;;;;;;;16.30;14.40;;;;;;;2.58;100.00;98216.13;109449;1252;61060;-77
2024/01/05 09:47:19;;;;;;;14.70;13.20;;;;;;;2.70;100.00;98218.35;109425;1252;65298;-77
2024/01/05 09:49:49;;;;;;;15.60;13.60;;;;;;;2.83;100.00;98216.50;109397;1253;59046;-75
2024/01/05 09:52:18;;;;;;;14.10;12.60;;;;;;;2.94;100.00;98214.57;109195;1253;59032;-77
2024/01/05 09:54:46;;;;;;;12.40;10.80;;;;;;;3.03;100.00;98216.58;109413;1252;67316;-76
2024/01/05 09:57:16;;;;;;;11.80;10.60;;;;;;;3.09;100.00;98221.73;109178;1253;60161;-78
2024/01/05 09:59:47;;;;;;;11.40;10.10;;;;;;;3.17;100.00;98217.83;109297;1252;65609;-78
2024/01/05 10:02:27;;;;;;;15.30;12.70;;;;;;;3.28;100.00;98215.19;109458;1252;58963;-78
2024/01/05 10:04:55;;;;;;;15.60;11.40;;;;;;;3.41;100.00;98212.45;109110;1252;59428;-77
2024/01/05 10:07:21;;;;;;;14.30;12.10;;;;;;;3.54;100.00;98214.22;109373;1252;67407;-77
2024/01/05 10:09:53;;;;;;;8.70;7.80;;;;;;;3.62;100.00;98219.77;109467;1252;60120;-78
2024/01/05 10:12:20;;;;;;;10.10;8.10;;;;;;;3.64;100.00;98215.30;109355;1252;64987;-75
2024/01/05 10:14:47;;;;;;;7.80;7.10;;;;;;;3.65;100.00;98215.62;109391;1252;59362;-76
2024/01/05 10:17:15;;;;;;;8.20;7.40;;;;;;;3.67;100.00;98214.80;109429;1252;58888;-76
2024/01/05 10:19:42;;;;;;;9.00;7.20;;;;;;;3.69;100.00;98215.55;109413;1252;66999;-77
2024/01/05 10:22:10;;;;;;;11.00;7.30;;;;;;;3.69;100.00;98215.52;109447;1252;61170;-77
2024/01/05 10:24:38;;;;;;;9.70;8.30;;;;;;;3.72;100.00;98219.28;109417;1252;64319;-78
2024/01/05 10:27:09;;;;;;;9.00;8.00;;;;;;;3.73;100.00;98212.54;109434;1252;59016;-76
2024/01/05 10:29:42;;;;;;;9.50;8.50;;;;;;;3.77;100.00;98205.86;109471;1252;59016;-77
2024/01/05 10:32:13;;;;;;;10.90;8.60;;;;;;;3.81;100.00;98204.76;109454;1252;67006;-76
2024/01/05 10:34:41;;;;;;;10.30;9.40;;;;;;;3.84;100.00;98197.22;109347;1252;61069;-76
2024/01/05 10:37:09;;;;;;;11.20;8.50;;;;;;;3.84;100.00;98194.77;109329;1252;64026;-74
2024/01/05 10:39:36;;;;;;;10.00;8.90;;;;;;;3.80;100.00;98196.40;109398;1252;59048;-77
2024/01/05 10:42:26;;;;;;;10.50;8.70;;;;;;;3.75;100.00;98198.38;109336;1252;59003;-77
2024/01/05 10:44:55;;;;;;;23.40;16.40;;;;;;;3.73;100.00;98204.44;106377;1252;1003576;-78
2024/01/05 10:47:23;;;;;;;39.80;23.10;;;;;;;3.76;100.00;98201.86;109426;1252;60127;-77
2024/01/05 10:49:53;;;;;;;12.50;10.30;;;;;;;3.80;100.00;98204.08;109446;1252;65106;-77
2024/01/05 10:52:22;;;;;;;12.80;9.60;;;;;;;3.84;100.00;98201.09;109399;1252;59104;-76
2024/01/05 10:54:51;;;;;;;10.90;9.50;;;;;;;3.82;100.00;98195.72;109466;1252;59050;-77
2024/01/05 10:57:19;;;;;;;10.00;8.90;;;;;;;3.84;100.00;98188.78;109325;1252;66725;-77
2024/01/05 10:59:51;;;;;;;9.90;8.40;;;;;;;3.87;100.00;98192.30;109320;1253;60125;-80
2024/01/05 11:02:40;;;;;;;8.90;7.70;;;;;;;3.91;100.00;98188.22;109429;1252;65090;-77
2024/01/05 11:05:09;;;;;;;10.10;9.00;;;;;;;4.03;100.00;98180.37;109293;1254;59210;-75
2024/01/05 11:07:37;;;;;;;8.40;7.30;;;;;;;4.22;100.00;98179.40;109443;1252;59028;-76
2024/01/05 11:10:41;;;;;;;8.60;7.70;;;;;;;4.33;100.00;98176.82;109328;1252;66833;-76
2024/01/05 11:13:19;;;;;;;9.40;8.40;;;;;;;4.47;100.00;98175.19;109432;1252;60007;-77
2024/01/05 11:16:12;;;;;;;9.60;8.60;;;;;;;4.52;100.00;98168.90;109410;1252;64344;-75
2024/01/05 11:19:12;;;;;;;12.70;10.40;;;;;;;4.51;100.00;98163.18;109440;1252;59288;-76
2024/01/05 11:21:57;;;;;;;11.20;9.90;;;;;;;4.53;100.00;98160.60;109440;1252;59175;-76